WordPress database error: []
INSERT INTO `taf` (`ID`, `ICAO`, `datetime`, `reading`, `dayfrom`, `hourfrom`, `dayto`, `hourto`, `direction`, `direction_varmin`, `direction_varmax`, `windspeed`, `windspeed_gusts`, `created`) VALUES (NULL, 'EDDF', '2017-05-27 17:00:00', 'EDDF 271700Z 2718/2824 07005KT CAVOK BECMG 2807/2811 19006KT PROB30 TEMPO 2818/2822 21020G40KT 2000 +TSRAGR SCT040CB', '27', '18', '28', '24', '70', '', '', '5', '', '2017-05-28 02:58:49')

TAF RAW:EDDF 271700Z 2718/2824 07005KT CAVOK BECMG 2807/2811 19006KT PROB30 TEMPO 2818/2822 21020G40KT 2000 +TSRAGR SCT040CB
-----------------------------------------------------------------------------------------------------------------------------------------------------------------------------
'datetime':2017-05-27 17:00:00
'ICAO':EDDF
'reading':
'dayfrom':27
'hourfrom':18
'dayto':28
'hourto':24
'direction':70
'direction_varmin':
'direction_varmax':
'windspeed':5
'windspeed_gusts':
'created':2017-05-28 02:58:49